Ambrose, Georgia
Current Conditions -  °F | °C
As of 5:35 PM on Monday 22 Dec 2014 (Local Time) from KDQH Reporting Station
Haze Haze  
Wind Chill: 55°   Ceiling: 200
Heat Index: 55°   Visibility: 1.5mi
Dew Point: 54°   Wind: 5mph
Humidity: 94%   Direction: 70°ENE
Pressure: 29.92"   Gusts: NA
Location:  31.59°N, 83.01°W
Report Text: KDQH 222235Z AUTO 07004KT 1 1/2SM BR OVC002 13/12 A2992 RMK AO2 LTG DSNT SE AND S
Loading
Personal Weather Stations






























Interactive Weather Map New forecast layout! Learn more

10-Day Weather Forecast

Advertisements
Track Severe Weather on mobile